Time;durP1;ratioP1;P1;durP2;ratioP2;P2;SDS_P1;SDS_P2;PMS_P1;PMS_P2;Temp;Humidity;BMP_temperature;BMP_pressure;BME280_temperature;BME280_humidity;BME280_pressure;Samples;Min_cycle;Max_cycle;Signal;HPM_P1;HPM_P2
2023/05/29 00:01:44;;;;;;;3.00;2.00;;;;;;;10.99;76.62;96703.13;106691;1284;23164;-85
2023/05/29 00:05:12;;;;;;;4.60;2.20;;;;;;;10.97;76.82;96704.05;108274;1282;137721;-85
2023/05/29 00:08:39;;;;;;;5.30;3.20;;;;;;;10.95;76.76;96704.08;106741;1284;22571;-86
2023/05/29 00:12:07;;;;;;;3.90;2.30;;;;;;;10.92;77.01;96702.35;106648;1284;22539;-85
2023/05/29 00:15:33;;;;;;;4.20;2.10;;;;;;;10.88;76.95;96702.06;106480;1284;138812;-85
2023/05/29 00:19:01;;;;;;;5.20;2.40;;;;;;;10.87;77.06;96699.52;106754;1277;22596;-85
2023/05/29 00:22:28;;;;;;;3.20;2.60;;;;;;;10.85;77.70;96694.38;106521;1284;138159;-86
2023/05/29 00:25:55;;;;;;;5.10;2.00;;;;;;;10.83;77.89;96693.80;106677;1284;22604;-85
2023/05/29 00:29:23;;;;;;;3.60;2.20;;;;;;;10.79;78.30;96690.78;106602;1284;22545;-85
2023/05/29 00:32:51;;;;;;;4.90;2.10;;;;;;;10.77;78.30;96685.02;106666;1284;24372;-85
2023/05/29 00:36:17;;;;;;;4.60;2.10;;;;;;;10.74;78.89;96688.64;106622;1284;25371;-85
2023/05/29 00:39:44;;;;;;;3.50;2.10;;;;;;;10.70;78.93;96688.29;106563;1284;137830;-85
2023/05/29 00:43:12;;;;;;;3.50;2.10;;;;;;;10.65;79.19;96693.85;106711;1283;24055;-85
2023/05/29 00:46:39;;;;;;;4.80;2.30;;;;;;;10.61;79.26;96693.91;106552;1277;137606;-85
2023/05/29 00:50:06;;;;;;;4.10;2.40;;;;;;;10.56;79.23;96689.66;106654;1277;22582;-86
2023/05/29 00:53:34;;;;;;;3.70;1.90;;;;;;;10.52;79.19;96694.27;107931;1282;24282;-85
2023/05/29 00:57:01;;;;;;;4.40;2.20;;;;;;;10.47;79.54;96691.16;106695;1276;22560;-86
2023/05/29 01:03:55;;;;;;;4.70;2.10;;;;;;;10.41;79.97;96687.69;107340;1283;138038;-85
2023/05/29 01:07:23;;;;;;;4.30;2.40;;;;;;;10.36;80.47;96687.95;106816;1284;25360;-86
2023/05/29 01:10:50;;;;;;;5.00;2.40;;;;;;;10.34;80.23;96682.92;106550;1277;138665;-85
2023/05/29 01:14:20;;;;;;;3.90;2.30;;;;;;;10.35;80.23;96678.02;106644;1284;25423;-86
2023/05/29 01:17:48;;;;;;;3.40;2.20;;;;;;;10.32;80.43;96677.89;106740;1283;22577;-85
2023/05/29 01:21:21;;;;;;;3.30;2.20;;;;;;;10.28;80.80;96675.59;106736;1277;25371;-85
2023/05/29 01:24:55;;;;;;;4.30;2.40;;;;;;;10.25;80.83;96671.56;106643;1283;24065;-85
2023/05/29 01:28:22;;;;;;;3.70;2.50;;;;;;;10.20;81.00;96673.35;106512;1282;137680;-85
2023/05/29 01:31:50;;;;;;;3.60;2.50;;;;;;;10.18;81.36;96672.58;109890;1263;22852;-85
2023/05/29 01:35:09;;;;;;;;;;;;;;;;;;;;;
2023/05/29 01:38:37;;;;;;;3.60;1.80;;;;;;;10.16;81.11;96673.25;106712;1282;22636;-85
2023/05/29 01:42:05;;;;;;;4.20;1.90;;;;;;;10.13;81.38;96678.48;106793;1275;25197;-85
2023/05/29 01:45:32;;;;;;;5.50;2.40;;;;;;;10.10;80.79;96676.08;106697;1266;137836;-85
2023/05/29 01:48:59;;;;;;;3.50;2.40;;;;;;;10.08;81.62;96673.41;106790;1281;25380;-85
2023/05/29 01:52:26;;;;;;;3.70;2.30;;;;;;;10.07;82.37;96670.77;106811;1270;137816;-86
2023/05/29 01:55:53;;;;;;;5.30;2.00;;;;;;;10.03;81.78;96670.14;106814;1275;25418;-86
2023/05/29 01:59:21;;;;;;;3.40;2.30;;;;;;;10.01;82.41;96668.98;106703;1282;138506;-86
2023/05/29 02:02:51;;;;;;;4.70;2.40;;;;;;;9.99;81.75;96666.14;109951;1263;22163;-86
2023/05/29 02:06:18;;;;;;;4.20;2.70;;;;;;;9.96;82.31;96666.30;106841;1282;25342;-86
2023/05/29 02:09:38;;;;;;;4.50;2.80;;;;;;;9.94;82.66;96661.80;106674;1274;138591;-84
2023/05/29 02:18:57;;;;;;;4.80;2.30;;;;;;;9.90;82.48;96660.20;109822;1260;22513;-86
2023/05/29 02:22:24;;;;;;;3.50;1.90;;;;;;;9.88;83.10;96660.27;109724;1277;137900;-87
2023/05/29 02:25:52;;;;;;;4.10;2.40;;;;;;;9.88;82.61;96658.81;108868;1280;22546;-86
2023/05/29 02:29:12;;;;;;;4.50;2.60;;;;;;;9.90;83.10;96659.66;106482;1277;137854;-86
2023/05/29 02:32:40;;;;;;;3.50;2.40;;;;;;;9.91;83.79;96660.59;106717;1278;25490;-85
2023/05/29 02:36:11;;;;;;;3.30;2.30;;;;;;;9.89;83.51;96660.11;106588;1284;24605;-85
2023/05/29 02:43:01;;;;;;;5.40;2.80;;;;;;;9.84;83.56;96658.43;106849;1275;22542;-86
2023/05/29 02:46:28;;;;;;;3.90;2.30;;;;;;;9.84;83.54;96657.52;106683;1282;137849;-86
2023/05/29 02:49:56;;;;;;;6.80;2.70;;;;;;;9.84;83.56;96661.02;106798;1282;22596;-86
2023/05/29 02:53:23;;;;;;;6.40;3.10;;;;;;;9.83;83.56;96661.84;109727;1274;137690;-85
2023/05/29 02:56:50;;;;;;;4.00;2.50;;;;;;;9.80;83.64;96661.99;109834;1274;22545;-85
2023/05/29 03:00:18;;;;;;;3.90;2.00;;;;;;;9.78;84.02;96655.80;109739;1260;23027;-86
2023/05/29 03:03:45;;;;;;;5.00;2.60;;;;;;;9.76;84.68;96649.94;108633;1283;22560;-86
2023/05/29 03:07:12;;;;;;;5.20;2.80;;;;;;;9.76;84.93;96648.42;106715;1277;22574;-85
2023/05/29 03:10:39;;;;;;;7.70;2.40;;;;;;;9.75;84.93;96642.11;107861;1276;138594;-85
2023/05/29 03:14:07;;;;;;;4.70;2.90;;;;;;;9.75;85.49;96640.75;109780;1260;22567;-86
2023/05/29 03:17:30;;;;;;;4.80;2.50;;;;;;;9.75;85.81;96637.95;109723;1276;138690;-86
2023/05/29 03:20:58;;;;;;;5.70;2.40;;;;;;;9.76;85.84;96642.23;107253;1277;22546;-85
2023/05/29 03:24:25;;;;;;;3.90;2.70;;;;;;;9.76;85.93;96641.02;106674;1277;23908;-86
2023/05/29 03:27:53;;;;;;;4.10;2.70;;;;;;;9.78;85.88;96643.55;109727;1262;22520;-86
2023/05/29 03:31:20;;;;;;;3.60;2.20;;;;;;;9.75;86.24;96642.48;106720;1283;22568;-86
2023/05/29 03:34:47;;;;;;;3.40;2.50;;;;;;;9.78;86.10;96644.04;109808;1278;138095;-86
2023/05/29 03:38:15;;;;;;;5.80;2.50;;;;;;;9.81;86.60;96641.85;109385;1283;25489;-85
2023/05/29 03:41:35;;;;;;;4.90;2.50;;;;;;;9.83;86.67;96647.11;106613;1283;137821;-85
2023/05/29 03:48:33;;;;;;;6.40;2.80;;;;;;;9.89;86.73;96650.05;109912;1263;22523;-85
2023/05/29 03:51:53;;;;;;;4.10;2.50;;;;;;;9.93;86.78;96649.92;109880;1263;22401;-85
2023/05/29 03:58:47;;;;;;;4.10;2.50;;;;;;;10.02;87.33;96651.27;106742;1282;137859;-85
2023/05/29 04:02:14;;;;;;;5.00;2.90;;;;;;;10.08;87.54;96652.52;106757;1275;22521;-85
2023/05/29 04:09:09;;;;;;;4.70;2.40;;;;;;;10.17;88.78;96654.30;106698;1282;22536;-85
2023/05/29 04:12:37;;;;;;;6.00;2.50;;;;;;;10.21;89.26;96652.64;106733;1274;22523;-85
2023/05/29 04:16:04;;;;;;;6.90;2.90;;;;;;;10.27;89.80;96648.14;109807;1260;22370;-86
2023/05/29 04:19:23;;;;;;;;;;;;;;;;;;;;;
2023/05/29 04:22:59;;;;;;;4.30;2.60;;;;;;;10.41;89.84;96654.11;109702;1283;138069;-85
2023/05/29 04:26:27;;;;;;;5.50;3.20;;;;;;;10.49;90.44;96653.05;107645;1283;23027;-85
2023/05/29 04:29:55;;;;;;;4.30;2.60;;;;;;;10.57;91.02;96658.25;106586;1277;137918;-85
2023/05/29 04:33:23;;;;;;;4.60;2.50;;;;;;;10.62;91.35;96660.27;109702;1260;22535;-86
2023/05/29 04:36:49;;;;;;;3.70;2.50;;;;;;;10.68;91.65;96663.80;109805;1260;22492;-87
2023/05/29 04:40:17;;;;;;;4.20;2.50;;;;;;;10.74;91.23;96668.39;109758;1273;23152;-86
2023/05/29 04:43:43;;;;;;;6.10;2.60;;;;;;;10.80;91.34;96671.64;109846;1260;22557;-87
2023/05/29 04:47:12;;;;;;;3.70;2.50;;;;;;;10.88;91.94;96669.35;109681;1268;138540;-86
2023/05/29 04:50:31;;;;;;;6.50;2.80;;;;;;;10.96;92.60;96672.80;109905;1264;22192;-86
2023/05/29 04:53:59;;;;;;;3.80;2.50;;;;;;;11.03;92.84;96674.02;109154;1274;137946;-85
2023/05/29 04:57:26;;;;;;;5.70;2.80;;;;;;;11.11;93.22;96673.48;106726;1282;22542;-85
2023/05/29 05:00:57;;;;;;;5.50;3.00;;;;;;;11.18;93.09;96675.44;106711;1277;22753;-85
2023/05/29 05:04:21;;;;;;;3.80;2.40;;;;;;;11.26;92.84;96673.58;106768;1283;23410;-85
2023/05/29 05:07:40;;;;;;;3.80;2.70;;;;;;;11.31;93.02;96675.04;109734;1260;22448;-85
2023/05/29 05:11:08;;;;;;;6.30;2.70;;;;;;;11.37;93.63;96671.07;107932;1278;137995;-85
2023/05/29 05:14:35;;;;;;;4.50;2.80;;;;;;;11.43;93.99;96673.10;106618;1277;22650;-84
2023/05/29 05:18:02;;;;;;;3.70;2.60;;;;;;;11.51;94.18;96671.05;106519;1283;137810;-84
2023/05/29 05:21:32;;;;;;;4.80;3.40;;;;;;;11.57;91.45;96667.59;106582;1284;24388;-85
2023/05/29 05:24:59;;;;;;;6.90;3.30;;;;;;;11.65;92.70;96666.85;106576;1277;138061;-85
2023/05/29 05:28:25;;;;;;;5.50;3.30;;;;;;;11.76;91.79;96668.79;106692;1283;22649;-85
2023/05/29 05:31:52;;;;;;;5.30;3.80;;;;;;;11.84;91.57;96668.79;106732;1283;24389;-85
2023/05/29 05:35:11;;;;;;;;;;;;;;;;;;;;;
2023/05/29 05:38:39;;;;;;;10.60;7.70;;;;;;;11.97;89.82;96679.73;109686;1283;22215;-86
2023/05/29 05:45:34;;;;;;;8.40;5.40;;;;;;;12.10;88.56;96687.60;106754;1278;25422;-85
2023/05/29 05:49:00;;;;;;;8.80;5.70;;;;;;;12.16;88.51;96689.34;106504;1277;138402;-85
2023/05/29 05:52:31;;;;;;;8.10;5.30;;;;;;;12.22;87.87;96687.62;106654;1283;22553;-85
2023/05/29 05:55:55;;;;;;;9.00;5.10;;;;;;;12.27;87.61;96688.14;106690;1284;22529;-85
2023/05/29 05:59:22;;;;;;;6.40;4.60;;;;;;;12.34;87.02;96686.80;106569;1283;137972;-85
2023/05/29 06:02:50;;;;;;;6.90;4.10;;;;;;;12.38;86.48;96689.40;106642;1277;22973;-85
2023/05/29 06:06:17;;;;;;;7.70;4.10;;;;;;;12.46;88.16;96693.51;106555;1283;138289;-85
2023/05/29 06:09:44;;;;;;;6.20;4.20;;;;;;;12.52;88.25;96696.77;106670;1282;24240;-86
2023/05/29 06:13:12;;;;;;;6.30;4.30;;;;;;;12.58;88.27;96697.41;106606;1283;138663;-85
2023/05/29 06:16:39;;;;;;;8.40;4.30;;;;;;;12.61;85.83;96705.23;106688;1279;22542;-85
2023/05/29 06:20:31;;;;;;;6.80;4.30;;;;;;;12.67;86.29;96708.63;106726;1282;25264;-85
2023/05/29 06:23:33;;;;;;;7.00;4.30;;;;;;;12.74;85.94;96710.02;106503;1277;138837;-86
2023/05/29 06:27:01;;;;;;;7.30;4.80;;;;;;;12.81;86.62;96715.26;106577;1282;22669;-85
2023/05/29 06:30:28;;;;;;;7.60;4.80;;;;;;;12.87;86.07;96720.69;106465;1278;138440;-85
2023/05/29 06:33:56;;;;;;;8.20;4.70;;;;;;;12.92;85.97;96724.41;106713;1277;25561;-85
2023/05/29 06:37:23;;;;;;;10.00;5.30;;;;;;;12.99;86.43;96730.32;106656;1284;25350;-85
2023/05/29 06:40:50;;;;;;;7.20;4.80;;;;;;;13.05;86.49;96734.29;106745;1282;24484;-85
2023/05/29 06:44:17;;;;;;;7.10;4.00;;;;;;;13.09;84.84;96740.89;106602;1280;25342;-85
2023/05/29 06:47:44;;;;;;;10.60;5.00;;;;;;;13.13;86.00;96738.11;106546;1277;138346;-85
2023/05/29 06:51:12;;;;;;;7.80;4.10;;;;;;;13.18;87.26;96741.74;106587;1280;22547;-85
2023/05/29 06:54:39;;;;;;;6.90;4.10;;;;;;;13.20;87.90;96741.46;106513;1279;137000;-85
2023/05/29 06:58:06;;;;;;;6.50;4.10;;;;;;;13.25;86.75;96734.94;106704;1283;24406;-85
2023/05/29 07:01:33;;;;;;;8.00;4.30;;;;;;;13.32;85.48;96730.65;106664;1283;24065;-85
2023/05/29 07:05:01;;;;;;;8.80;4.90;;;;;;;13.40;86.02;96734.54;106717;1278;22604;-86
2023/05/29 07:08:28;;;;;;;8.40;4.50;;;;;;;13.48;86.73;96741.60;106838;1283;22771;-86
2023/05/29 07:11:56;;;;;;;6.90;4.50;;;;;;;13.56;85.82;96742.27;106573;1279;138716;-86
2023/05/29 07:15:23;;;;;;;9.80;4.70;;;;;;;13.63;84.84;96744.11;106608;1280;23633;-85
2023/05/29 07:18:50;;;;;;;7.40;4.10;;;;;;;13.71;85.11;96747.83;106514;1277;137779;-85
2023/05/29 07:22:18;;;;;;;8.10;5.00;;;;;;;13.79;85.84;96748.98;106579;1278;22571;-85
2023/05/29 07:25:46;;;;;;;10.00;4.30;;;;;;;13.89;86.83;96755.52;106598;1283;22572;-86
2023/05/29 07:29:13;;;;;;;7.20;4.70;;;;;;;13.95;86.30;96757.52;106640;1284;24438;-85
2023/05/29 07:32:40;;;;;;;8.00;4.90;;;;;;;14.02;85.51;96763.91;106601;1284;22539;-86
2023/05/29 07:36:08;;;;;;;7.40;4.60;;;;;;;14.09;84.34;96766.02;106560;1283;138104;-86
2023/05/29 07:39:35;;;;;;;6.50;4.60;;;;;;;14.19;84.70;96763.51;106690;1282;25503;-85
2023/05/29 07:43:00;;;;;;;;;;;;;;;;;;;;;
2023/05/29 07:46:28;;;;;;;8.70;4.00;;;;;;;14.38;83.91;96762.29;106594;1268;24373;-85
2023/05/29 07:49:56;;;;;;;7.10;4.90;;;;;;;14.46;83.82;96762.92;106565;1284;23943;-85
2023/05/29 07:53:23;;;;;;;6.30;4.60;;;;;;;14.55;83.58;96772.34;106573;1283;22534;-85
2023/05/29 07:56:50;;;;;;;6.90;4.20;;;;;;;14.64;82.98;96770.24;106579;1280;24229;-86
2023/05/29 08:00:17;;;;;;;7.60;5.10;;;;;;;14.71;82.35;96771.79;106512;1275;137973;-86
2023/05/29 08:03:44;;;;;;;7.20;4.40;;;;;;;14.79;81.98;96770.95;106704;1283;23336;-86
2023/05/29 08:07:12;;;;;;;7.90;4.90;;;;;;;14.87;81.65;96770.81;106598;1283;137876;-85
2023/05/29 08:10:41;;;;;;;8.10;4.60;;;;;;;14.96;82.11;96770.34;106657;1283;23361;-85
2023/05/29 08:14:09;;;;;;;10.40;5.80;;;;;;;15.08;82.52;96766.16;106711;1275;24209;-85
2023/05/29 08:17:37;;;;;;;9.80;5.60;;;;;;;15.18;81.79;96770.33;102420;1282;25439;-86
2023/05/29 08:21:05;;;;;;;10.00;6.20;;;;;;;15.25;80.48;96767.77;106830;1282;22622;-86
2023/05/29 08:24:31;;;;;;;10.80;5.90;;;;;;;15.36;80.73;96769.52;106577;1282;138093;-85
2023/05/29 08:27:59;;;;;;;8.60;5.40;;;;;;;15.44;81.45;96769.54;106656;1276;22696;-85
2023/05/29 08:31:23;;;;;;;;;;;;;;;;;;;;;
2023/05/29 08:34:52;;;;;;;9.90;5.60;;;;;;;15.61;80.70;96779.11;106617;1283;22543;-85
2023/05/29 08:38:20;;;;;;;8.90;5.50;;;;;;;15.69;80.61;96775.44;106667;1281;23968;-86
2023/05/29 08:41:47;;;;;;;10.10;5.90;;;;;;;15.76;79.39;96780.62;106617;1283;138048;-85
2023/05/29 08:45:15;;;;;;;8.90;6.00;;;;;;;15.85;79.37;96775.89;106656;1278;25402;-86
2023/05/29 08:48:41;;;;;;;7.10;6.10;;;;;;;15.93;79.00;96776.92;106534;1283;138723;-86
2023/05/29 08:52:08;;;;;;;10.20;5.90;;;;;;;16.02;79.03;96780.89;106392;1277;22639;-83
2023/05/29 08:55:36;;;;;;;6.60;5.30;;;;;;;16.10;79.11;96776.67;106601;1283;138384;-86
2023/05/29 08:59:03;;;;;;;8.10;5.40;;;;;;;16.18;79.76;96775.23;106734;1283;25344;-86
2023/05/29 09:02:30;;;;;;;7.00;5.40;;;;;;;16.28;79.03;96776.85;106700;1283;25542;-86
2023/05/29 09:05:58;;;;;;;9.70;5.00;;;;;;;16.38;77.52;96770.48;106596;1262;138420;-86
2023/05/29 09:12:50;;;;;;;9.00;5.00;;;;;;;16.52;78.56;96767.06;106101;1284;138106;-85
2023/05/29 09:16:20;;;;;;;10.00;4.90;;;;;;;16.60;76.22;96764.98;106655;1283;22529;-85
2023/05/29 09:19:46;;;;;;;6.10;4.40;;;;;;;16.70;77.02;96763.23;106548;1283;138533;-86
2023/05/29 09:23:14;;;;;;;7.40;4.80;;;;;;;16.81;76.36;96767.14;106633;1283;22547;-85
2023/05/29 09:26:41;;;;;;;7.20;4.60;;;;;;;16.91;77.12;96770.10;106639;1278;22524;-85
2023/05/29 09:30:08;;;;;;;6.60;4.40;;;;;;;17.02;77.70;96769.22;106596;1281;138410;-86
2023/05/29 09:33:36;;;;;;;7.70;3.90;;;;;;;17.08;75.63;96762.39;106569;1284;22629;-86
2023/05/29 09:37:07;;;;;;;7.10;3.80;;;;;;;17.17;75.37;96763.02;106515;1275;138252;-86
2023/05/29 09:40:31;;;;;;;6.40;4.10;;;;;;;17.27;74.19;96762.74;106569;1282;22555;-86
2023/05/29 09:43:58;;;;;;;5.80;4.00;;;;;;;17.37;75.50;96763.73;106305;1283;138377;-86
2023/05/29 09:47:25;;;;;;;8.30;4.10;;;;;;;17.45;73.60;96759.16;106633;1280;24402;-86
2023/05/29 09:50:57;;;;;;;6.40;4.80;;;;;;;17.50;73.79;96759.80;106580;1283;22550;-86
2023/05/29 09:54:22;;;;;;;7.10;2.90;;;;;;;17.57;74.35;96758.84;106368;1277;138427;-86
2023/05/29 09:57:49;;;;;;;4.50;3.40;;;;;;;17.65;72.34;96763.14;106580;1284;22635;-86
2023/05/29 10:01:09;;;;;;;6.00;3.40;;;;;;;17.71;71.73;96765.44;106443;1283;137230;-86
2023/05/29 10:04:36;;;;;;;6.20;3.70;;;;;;;17.78;71.52;96763.41;106562;1275;22722;-86
2023/05/29 10:08:03;;;;;;;5.30;4.00;;;;;;;17.84;70.28;96765.11;106625;1282;138186;-86
2023/05/29 10:11:33;;;;;;;6.20;3.80;;;;;;;17.89;71.53;96765.71;106755;1281;22648;-85
2023/05/29 10:14:53;;;;;;;5.10;3.50;;;;;;;17.96;71.19;96762.57;106743;1282;25412;-86
2023/05/29 10:18:20;;;;;;;7.80;4.10;;;;;;;18.01;70.59;96766.11;106614;1281;138381;-86
2023/05/29 10:21:47;;;;;;;7.60;3.80;;;;;;;18.07;70.34;96763.98;106656;1279;22529;-85
2023/05/29 10:25:39;;;;;;;6.20;3.70;;;;;;;18.17;71.19;96767.63;106642;1281;137582;-86
2023/05/29 10:28:42;;;;;;;5.40;3.40;;;;;;;18.30;70.76;96769.38;106668;1279;24066;-85
2023/05/29 10:32:12;;;;;;;6.00;3.00;;;;;;;18.37;69.97;96772.86;106648;1282;137151;-86
2023/05/29 10:35:42;;;;;;;5.50;3.30;;;;;;;18.39;68.48;96765.00;106720;1282;23003;-86
2023/05/29 10:39:09;;;;;;;4.70;3.50;;;;;;;18.43;66.94;96761.38;106915;1278;24718;-89
2023/05/29 10:42:36;;;;;;;4.50;3.40;;;;;;;18.52;67.72;96755.98;106814;1282;138649;-88
2023/05/29 10:46:13;;;;;;;7.80;3.40;;;;;;;18.55;67.46;96751.80;106891;1282;22532;-89
2023/05/29 10:49:41;;;;;;;7.30;3.60;;;;;;;18.58;65.49;96752.20;106768;1282;137324;-88
2023/05/29 10:53:34;;;;;;;6.40;3.40;;;;;;;18.63;65.27;96753.92;106722;1278;25367;-88
2023/05/29 10:56:36;;;;;;;8.00;3.30;;;;;;;18.68;65.29;96753.10;106626;1282;136953;-88
2023/05/29 11:00:06;;;;;;;6.10;3.30;;;;;;;18.74;66.42;96754.77;106919;1280;25456;-88
2023/05/29 11:03:32;;;;;;;5.90;3.50;;;;;;;18.77;64.21;96754.67;106911;1282;24336;-89
2023/05/29 11:07:08;;;;;;;5.00;3.00;;;;;;;18.77;63.74;96756.67;106865;1275;137409;-88
2023/05/29 11:10:40;;;;;;;6.70;3.10;;;;;;;18.80;63.46;96757.67;106987;1282;22649;-88
2023/05/29 11:14:08;;;;;;;6.60;2.90;;;;;;;18.82;63.79;96758.95;106885;1281;137298;-88
2023/05/29 11:17:35;;;;;;;5.80;2.80;;;;;;;18.88;65.17;96760.97;106806;1275;22643;-88
2023/05/29 11:21:11;;;;;;;5.60;3.30;;;;;;;19.00;64.60;96752.80;106625;1279;23222;-88
2023/05/29 11:24:38;;;;;;;6.60;2.80;;;;;;;19.07;63.20;96760.45;106830;1282;137981;-89
2023/05/29 11:27:57;;;;;;;;;;;;;;;;;;;;;
2023/05/29 11:31:26;;;;;;;6.10;3.00;;;;;;;19.19;62.40;96756.29;106661;1281;137246;-87
2023/05/29 11:34:53;;;;;;;3.90;3.00;;;;;;;19.25;62.94;96751.65;106868;1279;22556;-88
2023/05/29 11:38:22;;;;;;;5.10;3.00;;;;;;;19.33;61.70;96749.24;106821;1282;137946;-88
2023/05/29 11:41:49;;;;;;;5.60;3.30;;;;;;;19.36;62.98;96749.29;106832;1282;22994;-88
2023/05/29 11:45:16;;;;;;;4.70;3.10;;;;;;;19.41;61.34;96751.02;106868;1275;23379;-88
2023/05/29 11:48:52;;;;;;;5.60;3.30;;;;;;;19.45;62.76;96753.96;106742;1275;137879;-87
2023/05/29 11:52:26;;;;;;;7.20;3.50;;;;;;;19.50;62.01;96752.53;106994;1281;22600;-89
2023/05/29 11:55:53;;;;;;;4.80;3.20;;;;;;;19.55;60.22;96747.63;106743;1281;137857;-88
2023/05/29 11:59:21;;;;;;;5.30;3.40;;;;;;;19.59;63.49;96750.55;106807;1282;25288;-88
2023/05/29 12:02:49;;;;;;;4.90;3.30;;;;;;;19.63;61.16;96744.54;106736;1282;138067;-88
2023/05/29 12:06:25;;;;;;;3.80;3.00;;;;;;;19.66;59.77;96739.70;106821;1275;22846;-87
2023/05/29 12:09:57;;;;;;;4.80;3.50;;;;;;;19.73;60.40;96739.14;106918;1281;22530;-89
2023/05/29 12:13:20;;;;;;;4.30;3.50;;;;;;;19.72;59.01;96735.27;106713;1282;137746;-89
2023/05/29 12:16:48;;;;;;;7.30;3.40;;;;;;;19.76;59.42;96733.38;106861;1282;22782;-88
2023/05/29 12:20:15;;;;;;;6.60;3.10;;;;;;;19.78;59.46;96728.83;106768;1281;137659;-88
2023/05/29 12:23:42;;;;;;;5.00;3.70;;;;;;;19.84;60.82;96733.67;106879;1282;23410;-89
2023/05/29 12:27:10;;;;;;;5.30;3.40;;;;;;;19.86;56.40;96731.11;106812;1282;25721;-87
2023/05/29 12:30:41;;;;;;;5.60;3.40;;;;;;;19.86;59.71;96731.17;106675;1282;137459;-88
2023/05/29 12:34:10;;;;;;;4.90;3.00;;;;;;;19.89;59.60;96730.83;106717;1282;22540;-87
2023/05/29 12:37:37;;;;;;;5.00;3.70;;;;;;;19.93;59.12;96724.98;106761;1282;138015;-88
2023/05/29 12:41:10;;;;;;;6.10;3.70;;;;;;;20.00;58.93;96724.23;106745;1282;22667;-85
2023/05/29 12:44:38;;;;;;;6.80;3.50;;;;;;;20.07;57.45;96717.27;106493;1282;137274;-85
2023/05/29 12:48:05;;;;;;;6.00;3.30;;;;;;;20.10;58.04;96717.27;106730;1276;24888;-85
2023/05/29 12:51:34;;;;;;;5.30;3.40;;;;;;;20.11;55.15;96717.85;106729;1281;25351;-85
2023/05/29 12:55:00;;;;;;;6.90;4.40;;;;;;;20.12;55.32;96717.35;106669;1282;137807;-83
2023/05/29 12:58:27;;;;;;;5.20;3.60;;;;;;;20.15;55.32;96716.83;106746;1282;25525;-85
2023/05/29 13:01:54;;;;;;;7.90;4.30;;;;;;;20.18;53.39;96708.88;106674;1276;137296;-84
2023/05/29 13:08:49;;;;;;;8.10;4.00;;;;;;;20.35;55.94;96705.88;106602;1282;137661;-85
2023/05/29 13:12:16;;;;;;;6.20;4.60;;;;;;;20.38;54.69;96708.05;106703;1282;22530;-85
2023/05/29 13:15:44;;;;;;;5.70;4.00;;;;;;;20.39;54.56;96705.34;106721;1281;23615;-85
2023/05/29 13:19:11;;;;;;;8.20;4.80;;;;;;;20.42;51.24;96702.70;106620;1270;138257;-85
2023/05/29 13:22:38;;;;;;;5.80;4.40;;;;;;;20.47;52.74;96695.77;106728;1264;24219;-85
2023/05/29 13:26:05;;;;;;;6.30;4.70;;;;;;;20.50;52.88;96688.77;106622;1275;137515;-85
2023/05/29 13:29:33;;;;;;;6.20;4.60;;;;;;;20.55;52.16;96686.59;106741;1281;25488;-85
2023/05/29 13:33:00;;;;;;;7.80;4.20;;;;;;;20.54;51.01;96687.67;106754;1282;137413;-85
2023/05/29 13:36:24;;;;;;;;;;;;;;;;;;;;;
2023/05/29 13:39:55;;;;;;;6.10;4.10;;;;;;;20.60;50.01;96674.69;106731;1282;24610;-85
2023/05/29 13:43:22;;;;;;;8.10;3.70;;;;;;;20.66;52.66;96672.73;106647;1281;137871;-85
2023/05/29 13:46:50;;;;;;;6.40;4.30;;;;;;;20.69;50.94;96671.25;106748;1280;24471;-85
2023/05/29 13:50:16;;;;;;;5.40;3.90;;;;;;;20.72;50.97;96670.61;106628;1282;137276;-85
2023/05/29 13:53:44;;;;;;;7.10;4.20;;;;;;;20.74;52.24;96664.10;106665;1280;22575;-85
2023/05/29 13:57:11;;;;;;;8.30;4.70;;;;;;;20.81;51.43;96658.20;109604;1260;136984;-86
2023/05/29 14:00:38;;;;;;;6.40;4.30;;;;;;;20.86;52.17;96658.23;109072;1282;24248;-85
2023/05/29 14:04:06;;;;;;;7.90;3.90;;;;;;;20.86;49.58;96658.50;106691;1282;22641;-85
2023/05/29 14:07:33;;;;;;;5.80;4.10;;;;;;;20.90;52.03;96656.02;106599;1280;151114;-85
2023/05/29 14:10:53;;;;;;;6.50;4.40;;;;;;;20.91;50.38;96653.44;106715;1282;22544;-85
2023/05/29 14:14:20;;;;;;;7.50;3.60;;;;;;;20.98;51.47;96648.35;106676;1278;137094;-85
2023/05/29 14:17:48;;;;;;;6.30;3.70;;;;;;;21.01;53.37;96645.83;106751;1282;22601;-85
2023/05/29 14:21:15;;;;;;;6.70;4.50;;;;;;;21.04;53.75;96642.81;106637;1282;137597;-85
2023/05/29 14:24:42;;;;;;;5.10;3.50;;;;;;;21.11;53.71;96642.64;106702;1276;25532;-85
2023/05/29 14:28:10;;;;;;;6.00;4.20;;;;;;;21.16;54.54;96644.27;106650;1282;22654;-85
2023/05/29 14:31:37;;;;;;;6.60;4.10;;;;;;;21.20;54.49;96644.69;106680;1282;137357;-85
2023/05/29 14:35:04;;;;;;;5.90;3.60;;;;;;;21.20;55.59;96642.95;106740;1274;24257;-85
2023/05/29 14:38:31;;;;;;;5.80;4.20;;;;;;;21.17;51.39;96638.80;106587;1276;137161;-85
2023/05/29 14:42:01;;;;;;;5.50;3.30;;;;;;;21.18;50.54;96635.59;106737;1282;24262;-85
2023/05/29 14:45:27;;;;;;;6.60;3.50;;;;;;;21.23;54.20;96630.14;106701;1282;22527;-85
2023/05/29 14:48:54;;;;;;;7.40;4.50;;;;;;;21.24;54.00;96627.89;106742;1282;22643;-85
2023/05/29 14:52:21;;;;;;;5.80;3.30;;;;;;;21.27;53.52;96629.64;106716;1281;22783;-85
2023/05/29 14:55:41;;;;;;;;;;;;;;;;;;;;;
2023/05/29 14:58:52;;;;;;;;;;;;;;;21.29;52.95;96626.91;106592;1276;26659;-85
2023/05/29 15:02:18;;;;;;;8.60;3.30;;;;;;;21.29;53.44;96623.27;106745;1282;123637;-85
2023/05/29 15:05:46;;;;;;;7.80;3.90;;;;;;;21.32;54.43;96631.83;106691;1275;22570;-85
2023/05/29 15:09:13;;;;;;;6.90;3.50;;;;;;;21.22;53.23;96627.06;106569;1280;137466;-85
2023/05/29 15:12:40;;;;;;;5.70;3.80;;;;;;;21.23;50.67;96625.08;106787;1282;24298;-86
2023/05/29 15:16:07;;;;;;;7.00;3.80;;;;;;;21.27;51.12;96622.61;106856;1282;24258;-86
2023/05/29 15:19:34;;;;;;;6.40;3.40;;;;;;;21.32;50.58;96627.91;106606;1280;137355;-86
2023/05/29 15:23:02;;;;;;;8.60;3.30;;;;;;;21.35;50.87;96622.95;106690;1279;24342;-85
2023/05/29 15:26:29;;;;;;;6.80;4.00;;;;;;;21.39;51.17;96619.83;106627;1282;137190;-85
2023/05/29 15:29:56;;;;;;;6.30;3.60;;;;;;;21.41;52.28;96618.10;106650;1280;24065;-85
2023/05/29 15:33:24;;;;;;;4.60;3.20;;;;;;;21.37;52.51;96622.39;106490;1282;137317;-84
2023/05/29 15:36:51;;;;;;;5.80;3.30;;;;;;;21.36;52.90;96621.38;106731;1280;22792;-85
2023/05/29 15:40:19;;;;;;;5.10;3.40;;;;;;;21.33;53.32;96622.02;106796;1275;22780;-85
2023/05/29 15:43:46;;;;;;;6.20;3.70;;;;;;;21.32;52.54;96621.58;106602;1276;137654;-86
2023/05/29 15:47:14;;;;;;;6.90;4.00;;;;;;;21.36;50.58;96616.67;106647;1280;25367;-86
2023/05/29 15:50:41;;;;;;;6.30;3.80;;;;;;;21.38;51.45;96618.91;106569;1276;137578;-86
2023/05/29 15:54:08;;;;;;;9.40;3.90;;;;;;;21.40;52.72;96621.84;106648;1283;22533;-86
2023/05/29 15:57:35;;;;;;;6.50;3.40;;;;;;;21.33;54.18;96623.28;106598;1283;137304;-85
2023/05/29 16:01:03;;;;;;;4.80;3.40;;;;;;;21.24;51.98;96624.19;106709;1283;24398;-85
2023/05/29 16:04:31;;;;;;;5.60;4.10;;;;;;;21.25;51.53;96625.77;106683;1275;23923;-86
2023/05/29 16:07:58;;;;;;;4.70;3.30;;;;;;;21.24;50.76;96627.68;106601;1283;137857;-86
2023/05/29 16:11:25;;;;;;;6.80;3.60;;;;;;;21.27;50.27;96630.65;106553;1276;24262;-86
2023/05/29 16:14:54;;;;;;;5.60;3.50;;;;;;;21.32;51.67;96632.38;106575;1277;137229;-86
2023/05/29 16:18:21;;;;;;;5.00;3.50;;;;;;;21.31;50.32;96631.05;106709;1283;25457;-86
2023/05/29 16:21:47;;;;;;;6.00;3.60;;;;;;;21.26;49.53;96620.97;106699;1283;25348;-85
2023/05/29 16:25:15;;;;;;;7.20;3.90;;;;;;;21.24;51.60;96622.36;106713;1283;22579;-86
2023/05/29 16:28:43;;;;;;;9.70;4.10;;;;;;;21.23;52.45;96622.73;106812;1283;22574;-85
2023/05/29 16:32:11;;;;;;;10.20;4.20;;;;;;;21.19;52.71;96622.44;106572;1280;137329;-85
2023/05/29 16:35:38;;;;;;;6.50;4.30;;;;;;;21.17;52.57;96625.38;106817;1282;22482;-86
2023/05/29 16:39:07;;;;;;;4.60;3.80;;;;;;;21.13;50.94;96623.17;106596;1282;137156;-86
2023/05/29 16:45:51;;;;;;;;;;;;;;;;;;;;;
2023/05/29 16:49:22;;;;;;;5.90;4.10;;;;;;;21.03;51.62;96622.67;106634;1282;22618;-85
2023/05/29 16:52:49;;;;;;;6.20;4.00;;;;;;;21.00;52.66;96623.54;106753;1276;24244;-85